createdAt,value
2019-04-04T00:02:14.646Z,31.87
2019-04-04T00:04:43.811Z,32.20
2019-04-04T00:07:12.923Z,30.80
2019-04-04T00:09:42.101Z,26.33
2019-04-04T00:12:11.320Z,27.90
2019-04-04T00:14:43.503Z,26.73
2019-04-04T00:17:12.372Z,25.47
2019-04-04T00:19:41.537Z,22.37
2019-04-04T00:22:10.723Z,15.43
2019-04-04T00:24:39.945Z,21.47
2019-04-04T00:27:11.210Z,19.73
2019-04-04T00:29:40.487Z,19.47
2019-04-04T00:32:09.609Z,24.37
2019-04-04T00:34:38.727Z,18.30
2019-04-04T00:37:07.820Z,16.03
2019-04-04T00:39:40.668Z,17.37
2019-04-04T00:42:10.073Z,16.37
2019-04-04T00:44:39.219Z,16.70
2019-04-04T00:47:08.298Z,18.17
2019-04-04T00:49:37.406Z,18.57
2019-04-04T00:52:08.275Z,16.40
2019-04-04T00:54:37.395Z,14.77
2019-04-04T00:57:06.496Z,15.60
2019-04-04T00:59:35.621Z,14.50
2019-04-04T01:02:04.716Z,14.93
2019-04-04T01:04:33.839Z,17.53
2019-04-04T01:07:03.032Z,13.97
2019-04-04T01:09:33.781Z,14.10
2019-04-04T01:12:02.899Z,16.10
2019-04-04T01:14:32.032Z,16.30
2019-04-04T01:17:03.760Z,14.40
2019-04-04T01:19:32.077Z,15.07
2019-04-04T01:22:01.168Z,13.67
2019-04-04T01:24:30.559Z,14.30
2019-04-04T01:26:59.949Z,13.87
2019-04-04T01:29:29.199Z,13.07
2019-04-04T01:31:58.454Z,16.20
2019-04-04T01:34:27.706Z,15.17
2019-04-04T01:36:57.166Z,11.93
2019-04-04T01:39:26.432Z,13.10
2019-04-04T01:41:55.688Z,12.53
2019-04-04T01:44:24.788Z,12.60
2019-04-04T01:46:54.898Z,13.53
2019-04-04T01:49:23.996Z,15.53
2019-04-04T01:51:54.878Z,11.30
2019-04-04T01:54:23.927Z,12.53
2019-04-04T01:56:53.037Z,15.53
2019-04-04T01:59:22.152Z,13.00
2019-04-04T02:01:51.275Z,13.40
2019-04-04T02:04:20.680Z,13.70
2019-04-04T02:06:49.800Z,12.37
2019-04-04T02:09:18.897Z,14.00
2019-04-04T02:11:48.288Z,13.50
2019-04-04T02:14:19.486Z,13.17
2019-04-04T02:16:50.767Z,14.80
2019-04-04T02:19:19.101Z,13.50
2019-04-04T02:21:48.236Z,13.27
2019-04-04T02:24:17.337Z,11.97
2019-04-04T02:26:46.464Z,14.87
2019-04-04T02:29:15.817Z,13.70
2019-04-04T02:31:53.016Z,12.50
2019-04-04T02:34:19.371Z,12.63
2019-04-04T02:36:49.853Z,13.30
2019-04-04T02:39:19.473Z,13.03
2019-04-04T02:41:49.369Z,13.57
2019-04-04T02:44:18.695Z,12.67
2019-04-04T02:46:48.133Z,12.20
2019-04-04T02:49:17.249Z,14.43
2019-04-04T02:51:46.360Z,13.77
2019-04-04T02:54:15.484Z,12.70
2019-04-04T02:56:44.681Z,13.60
2019-04-04T02:59:13.827Z,13.37
2019-04-04T03:01:42.953Z,12.10
2019-04-04T03:04:13.880Z,13.07
2019-04-04T03:06:42.998Z,12.43
2019-04-04T03:09:12.112Z,14.50
2019-04-04T03:11:41.255Z,17.93
2019-04-04T03:14:10.693Z,15.80
2019-04-04T03:16:39.799Z,12.23
2019-04-04T03:19:10.912Z,16.33
2019-04-04T03:21:39.732Z,14.87
2019-04-04T03:24:08.928Z,11.27
2019-04-04T03:26:38.648Z,15.10
2019-04-04T03:29:10.426Z,14.60
2019-04-04T03:31:39.235Z,15.60
2019-04-04T03:34:11.674Z,12.63
2019-04-04T03:36:39.439Z,14.83
2019-04-04T03:39:08.572Z,13.17
2019-04-04T03:41:38.036Z,14.80
2019-04-04T03:44:07.160Z,15.37
2019-04-04T03:46:38.852Z,14.43
2019-04-04T03:49:07.185Z,15.40
2019-04-04T03:51:38.087Z,13.37
2019-04-04T03:54:12.439Z,14.00
2019-04-04T03:56:41.652Z,15.53
2019-04-04T03:59:11.832Z,16.40
2019-04-04T04:01:45.440Z,12.70
2019-04-04T04:04:11.772Z,16.10
2019-04-04T04:06:42.062Z,15.97
2019-04-04T04:09:11.735Z,14.23
2019-04-04T04:11:40.874Z,16.13
2019-04-04T04:14:09.986Z,15.83
2019-04-04T04:16:39.158Z,14.30
2019-04-04T04:19:08.283Z,15.03
2019-04-04T04:21:37.488Z,14.57
2019-04-04T04:24:06.640Z,16.43
2019-04-04T04:26:35.844Z,13.20
2019-04-04T04:29:04.944Z,14.53
2019-04-04T04:31:34.083Z,16.23
2019-04-04T04:34:03.205Z,14.10
2019-04-04T04:36:32.320Z,15.80
2019-04-04T04:39:01.456Z,13.70
2019-04-04T04:41:31.822Z,14.90
2019-04-04T04:44:02.780Z,15.10
2019-04-04T04:46:31.821Z,15.20
2019-04-04T04:49:03.186Z,15.97
2019-04-04T04:51:31.792Z,17.13
2019-04-04T04:54:00.951Z,18.00
2019-04-04T04:56:31.280Z,18.73
2019-04-04T04:59:01.128Z,17.33
2019-04-04T05:01:30.233Z,18.30
2019-04-04T05:04:02.322Z,17.03
2019-04-04T05:06:30.449Z,24.53
2019-04-04T05:08:59.809Z,15.93
2019-04-04T05:11:28.981Z,17.50
2019-04-04T05:13:58.792Z,19.87
2019-04-04T05:16:28.108Z,17.00
2019-04-04T05:18:57.227Z,17.93
2019-04-04T05:21:28.842Z,16.83
2019-04-04T05:23:57.412Z,18.10
2019-04-04T05:26:26.544Z,18.40
2019-04-04T05:28:57.148Z,19.47
2019-04-04T05:31:27.496Z,20.60
2019-04-04T05:33:58.742Z,20.03
2019-04-04T05:36:27.459Z,17.90
2019-04-04T05:38:56.648Z,19.80
2019-04-04T05:41:27.395Z,20.27
2019-04-04T05:43:56.712Z,27.23
2019-04-04T05:46:25.913Z,19.30
2019-04-04T05:48:55.036Z,19.37
2019-04-04T05:51:24.183Z,18.60
2019-04-04T05:53:53.351Z,19.00
2019-04-04T05:56:24.218Z,26.97
2019-04-04T05:58:53.769Z,21.37
2019-04-04T06:01:23.281Z,21.10
2019-04-04T06:03:52.466Z,20.40
2019-04-04T06:06:21.647Z,23.40
2019-04-04T06:08:50.812Z,23.20
2019-04-04T06:11:21.675Z,22.73
2019-04-04T06:13:50.748Z,23.80
2019-04-04T06:16:20.148Z,22.00
2019-04-04T06:18:49.354Z,20.37
2019-04-04T06:21:19.163Z,22.63
2019-04-04T06:23:48.416Z,21.07
2019-04-04T06:26:17.874Z,25.20
2019-04-04T06:28:47.023Z,21.93
2019-04-04T06:31:16.141Z,23.83
2019-04-04T06:33:45.292Z,25.13
2019-04-04T06:36:17.615Z,23.50
2019-04-04T06:38:45.261Z,23.50
2019-04-04T06:41:14.419Z,25.23
2019-04-04T06:43:43.556Z,26.07
2019-04-04T06:46:12.772Z,30.40
2019-04-04T06:48:41.919Z,31.70
2019-04-04T06:51:13.877Z,24.00
2019-04-04T06:53:41.881Z,24.50
2019-04-04T06:56:10.993Z,24.27
2019-04-04T06:58:40.773Z,27.70
2019-04-04T07:01:11.278Z,24.70
2019-04-04T07:03:40.597Z,28.30
2019-04-04T07:06:10.203Z,24.00
2019-04-04T07:08:40.106Z,23.63
2019-04-04T07:11:21.134Z,23.97
2019-04-04T07:13:42.609Z,20.67
2019-04-04T07:16:10.860Z,20.50
2019-04-04T07:18:40.973Z,24.53
2019-04-04T07:21:10.775Z,25.73
2019-04-04T07:23:41.828Z,22.77
2019-04-04T07:26:14.594Z,27.30
2019-04-04T07:28:41.583Z,27.03
2019-04-04T07:31:10.691Z,19.80
2019-04-04T07:33:42.608Z,21.80
2019-04-04T07:36:10.638Z,20.60
2019-04-04T07:38:40.124Z,19.70
2019-04-04T07:41:09.288Z,18.67
2019-04-04T07:43:39.482Z,20.83
2019-04-04T07:46:16.322Z,18.87
2019-04-04T07:48:39.911Z,29.23
2019-04-04T07:51:09.008Z,18.20
2019-04-04T07:53:38.128Z,15.23
2019-04-04T07:56:07.253Z,16.60
2019-04-04T07:58:36.391Z,19.50
2019-04-04T08:01:05.496Z,17.47
2019-04-04T08:03:34.644Z,16.47
2019-04-04T08:06:03.778Z,15.20
2019-04-04T08:08:32.905Z,16.03
2019-04-04T08:11:02.005Z,16.83
2019-04-04T08:13:31.124Z,16.77
2019-04-04T08:16:00.308Z,16.93
2019-04-04T08:18:29.441Z,20.20
2019-04-04T08:20:58.551Z,18.87
2019-04-04T08:23:27.687Z,17.60
2019-04-04T08:25:56.792Z,24.97
2019-04-04T08:28:25.923Z,23.07
2019-04-04T08:30:55.020Z,18.13
2019-04-04T08:33:24.157Z,21.00
2019-04-04T08:36:05.126Z,12.77
2019-04-04T08:38:24.515Z,16.73
2019-04-04T08:40:53.605Z,18.00
2019-04-04T08:43:22.729Z,16.50
2019-04-04T08:45:52.882Z,14.70
2019-04-04T08:48:22.008Z,15.60
2019-04-04T08:50:51.137Z,18.43
2019-04-04T08:53:20.522Z,28.37
2019-04-04T08:55:49.658Z,16.40
2019-04-04T08:58:18.787Z,25.73
2019-04-04T09:00:47.918Z,25.67
2019-04-04T09:03:18.169Z,30.53
2019-04-04T09:05:47.272Z,19.30
2019-04-04T09:08:16.420Z,15.57
2019-04-04T09:10:45.564Z,16.73
2019-04-04T09:13:14.893Z,18.63
2019-04-04T09:15:44.016Z,17.30
2019-04-04T09:18:13.132Z,16.10
2019-04-04T09:20:42.310Z,16.47
2019-04-04T09:23:11.440Z,18.23
2019-04-04T09:25:41.000Z,16.17
2019-04-04T09:28:10.336Z,19.07
2019-04-04T09:30:40.432Z,18.33
2019-04-04T09:33:09.553Z,18.53
2019-04-04T09:35:38.678Z,22.20
2019-04-04T09:38:08.092Z,16.70
2019-04-04T09:40:37.208Z,18.90
2019-04-04T09:43:06.657Z,15.93
2019-04-04T09:45:35.835Z,19.13
2019-04-04T09:48:05.336Z,20.83
2019-04-04T09:50:34.528Z,17.27
2019-04-04T09:53:03.738Z,17.00
2019-04-04T09:55:32.844Z,28.87
2019-04-04T09:58:03.428Z,25.50
2019-04-04T10:00:32.639Z,19.83
2019-04-04T10:03:01.889Z,17.53
2019-04-04T10:05:31.004Z,16.23
2019-04-04T10:08:00.152Z,17.47
2019-04-04T10:10:29.454Z,17.23
2019-04-04T10:12:58.667Z,18.77
2019-04-04T10:15:27.756Z,13.90
2019-04-04T10:17:56.878Z,16.53
2019-04-04T10:20:26.001Z,18.27
2019-04-04T10:22:55.137Z,16.43
2019-04-04T10:25:24.314Z,16.30
2019-04-04T10:27:53.459Z,17.00
2019-04-04T10:30:22.628Z,17.00
2019-04-04T10:32:51.829Z,12.43
2019-04-04T10:35:20.932Z,18.50
2019-04-04T10:37:50.052Z,14.93
2019-04-04T10:40:19.330Z,15.83
2019-04-04T10:42:48.456Z,18.80
2019-04-04T10:45:17.664Z,17.53
2019-04-04T10:47:46.912Z,17.57
2019-04-04T10:50:16.089Z,15.10
2019-04-04T10:52:45.204Z,15.03
2019-04-04T10:55:14.530Z,16.53
2019-04-04T10:57:43.661Z,19.30
2019-04-04T11:00:13.151Z,16.70
2019-04-04T11:02:43.805Z,16.47
2019-04-04T11:05:13.035Z,15.90
2019-04-04T11:07:42.156Z,18.70
2019-04-04T11:10:11.261Z,21.03
2019-04-04T11:12:40.385Z,16.23
2019-04-04T11:15:09.692Z,18.63
2019-04-04T11:17:38.829Z,16.07
2019-04-04T11:20:07.952Z,20.93
2019-04-04T11:22:37.100Z,20.73
2019-04-04T11:25:06.500Z,15.70
2019-04-04T11:27:35.601Z,17.93
2019-04-04T11:30:05.554Z,17.03
2019-04-04T11:32:34.676Z,16.50
2019-04-04T11:35:04.442Z,23.40
2019-04-04T11:37:33.558Z,18.87
2019-04-04T11:40:02.775Z,18.70
2019-04-04T11:42:31.881Z,14.50
2019-04-04T11:45:01.068Z,15.50
2019-04-04T11:47:30.603Z,15.57
2019-04-04T11:49:59.820Z,27.50
2019-04-04T11:52:28.932Z,17.03
2019-04-04T11:54:59.338Z,23.07
2019-04-04T11:57:28.447Z,24.23
2019-04-04T11:59:57.570Z,24.53
2019-04-04T12:02:28.745Z,30.33
2019-04-04T12:04:58.131Z,15.57
2019-04-04T12:07:27.257Z,18.23
2019-04-04T12:10:06.793Z,17.83
2019-04-04T12:12:27.267Z,16.23
2019-04-04T12:14:56.444Z,15.63
2019-04-04T12:17:25.877Z,17.07
2019-04-04T12:19:55.049Z,26.27
2019-04-04T12:22:24.146Z,19.10
2019-04-04T12:24:53.264Z,19.40
2019-04-04T12:27:22.375Z,18.70
2019-04-04T12:29:51.495Z,21.23
2019-04-04T12:32:20.580Z,17.00
2019-04-04T12:34:49.704Z,22.70
2019-04-04T12:37:18.805Z,19.23
2019-04-04T12:39:47.932Z,17.13
2019-04-04T12:42:17.040Z,21.67
2019-04-04T12:44:46.191Z,22.83
2019-04-04T12:47:15.325Z,22.40
2019-04-04T12:49:44.448Z,19.97
2019-04-04T12:52:13.548Z,20.37
2019-04-04T12:54:42.674Z,21.80
2019-04-04T12:57:11.788Z,21.00
2019-04-04T12:59:41.204Z,21.10
2019-04-04T13:02:10.328Z,27.53
2019-04-04T13:04:39.437Z,16.23
2019-04-04T13:07:08.545Z,21.53
2019-04-04T13:09:37.665Z,19.50
2019-04-04T13:12:06.770Z,22.20
2019-04-04T13:14:35.892Z,16.77
2019-04-04T13:17:05.088Z,18.73
2019-04-04T13:19:34.197Z,21.27
2019-04-04T13:22:03.476Z,19.67
2019-04-04T13:24:32.623Z,20.07
2019-04-04T13:27:01.707Z,18.53
2019-04-04T13:29:30.842Z,18.33
2019-04-04T13:31:59.942Z,20.63
2019-04-04T13:34:29.071Z,19.57
2019-04-04T13:36:58.248Z,17.87
2019-04-04T13:39:27.386Z,17.10
2019-04-04T13:41:56.500Z,19.60
2019-04-04T13:44:25.898Z,22.60
2019-04-04T13:46:55.082Z,21.30
2019-04-04T13:49:24.455Z,18.57
2019-04-04T13:51:53.730Z,16.93
2019-04-04T13:54:22.996Z,20.00
2019-04-04T13:56:52.133Z,27.73
2019-04-04T13:59:21.407Z,19.23
2019-04-04T14:01:50.513Z,18.53
2019-04-04T14:04:20.481Z,18.77
2019-04-04T14:06:49.984Z,23.47
2019-04-04T14:09:19.116Z,17.27
2019-04-04T14:11:48.232Z,18.40
2019-04-04T14:14:17.355Z,19.13
2019-04-04T14:16:46.476Z,17.20
2019-04-04T14:19:15.676Z,15.47
2019-04-04T14:21:44.841Z,20.87
2019-04-04T14:24:14.414Z,17.60
2019-04-04T14:26:46.019Z,16.87
2019-04-04T14:29:26.633Z,18.30
2019-04-04T14:31:45.264Z,16.93
2019-04-04T14:34:14.370Z,22.50
2019-04-04T14:36:43.469Z,23.33
2019-04-04T14:39:12.603Z,19.30
2019-04-04T14:41:41.720Z,24.13
2019-04-04T14:44:10.847Z,18.23
2019-04-04T14:46:40.054Z,16.77
2019-04-04T14:49:09.244Z,20.83
2019-04-04T14:51:38.387Z,20.97
2019-04-04T14:54:07.509Z,32.23
2019-04-04T14:56:36.634Z,24.70
2019-04-04T14:59:05.735Z,20.17
2019-04-04T15:01:35.297Z,23.77
2019-04-04T15:04:04.537Z,21.53
2019-04-04T15:06:33.636Z,22.53
2019-04-04T15:09:04.520Z,22.47
2019-04-04T15:11:34.183Z,21.23
2019-04-04T15:14:03.292Z,21.83
2019-04-04T15:16:32.388Z,23.77
2019-04-04T15:19:01.520Z,27.73
2019-04-04T15:21:30.640Z,22.00
2019-04-04T15:24:00.000Z,23.13
2019-04-04T15:26:29.135Z,24.90
2019-04-04T15:28:58.252Z,23.20
2019-04-04T15:31:27.371Z,24.20
2019-04-04T15:33:56.791Z,23.67
2019-04-04T15:36:25.968Z,21.67
2019-04-04T15:38:55.225Z,22.10
2019-04-04T15:41:36.374Z,20.03
2019-04-04T15:43:56.271Z,26.60
2019-04-04T15:46:25.419Z,134.57
2019-04-04T15:48:54.513Z,26.00
2019-04-04T15:51:23.643Z,19.53
2019-04-04T15:53:52.895Z,25.50
2019-04-04T15:56:22.120Z,25.90
2019-04-04T15:58:51.252Z,23.50
2019-04-04T16:01:20.416Z,22.30
2019-04-04T16:03:50.200Z,22.43
2019-04-04T16:06:19.425Z,24.83
2019-04-04T16:08:48.899Z,23.77
2019-04-04T16:11:18.097Z,24.17
2019-04-04T16:13:47.205Z,20.80
2019-04-04T16:16:16.340Z,22.57
2019-04-04T16:18:45.459Z,23.50
2019-04-04T16:21:14.953Z,27.83
2019-04-04T16:23:44.060Z,22.83
2019-04-04T16:26:13.190Z,23.53
2019-04-04T16:28:42.288Z,25.40
2019-04-04T16:31:11.487Z,20.67
2019-04-04T16:33:40.624Z,24.93
2019-04-04T16:36:09.729Z,27.33
2019-04-04T16:38:38.863Z,27.90
2019-04-04T16:41:08.033Z,22.00
2019-04-04T16:43:37.173Z,22.80
2019-04-04T16:46:06.613Z,20.23
2019-04-04T16:48:35.801Z,22.83
2019-04-04T16:51:05.057Z,22.33
2019-04-04T16:53:34.156Z,24.70
2019-04-04T16:56:03.292Z,26.00
2019-04-04T16:58:32.415Z,21.73
2019-04-04T17:01:01.721Z,15.87
2019-04-04T17:03:30.834Z,18.20
2019-04-04T17:05:59.953Z,15.23
2019-04-04T17:08:29.056Z,19.70
2019-04-04T17:10:58.470Z,15.23
2019-04-04T17:13:27.587Z,14.70
2019-04-04T17:15:56.744Z,20.23
2019-04-04T17:18:25.853Z,17.87
2019-04-04T17:20:55.257Z,16.20
2019-04-04T17:23:24.360Z,21.73
2019-04-04T17:25:53.533Z,20.10
2019-04-04T17:28:22.671Z,15.30
2019-04-04T17:30:51.920Z,13.87
2019-04-04T17:33:21.200Z,19.63
2019-04-04T17:35:50.959Z,14.50
2019-04-04T17:38:20.349Z,15.07
2019-04-04T17:40:49.616Z,15.33
2019-04-04T17:43:18.712Z,21.57
2019-04-04T17:45:48.398Z,16.20
2019-04-04T17:48:18.900Z,13.60
2019-04-04T17:50:48.435Z,14.17
2019-04-04T17:53:18.004Z,14.87
2019-04-04T17:55:47.773Z,13.73
2019-04-04T17:58:17.068Z,17.50
2019-04-04T18:00:46.272Z,16.43
2019-04-04T18:03:15.700Z,18.80
2019-04-04T18:05:45.849Z,14.03
2019-04-04T18:08:14.960Z,14.07
2019-04-04T18:10:44.318Z,13.07
2019-04-04T18:13:13.409Z,14.53
2019-04-04T18:15:42.532Z,16.00
2019-04-04T18:18:11.629Z,13.77
2019-04-04T18:20:40.740Z,13.10
2019-04-04T18:23:09.892Z,15.03
2019-04-04T18:25:40.013Z,14.00
2019-04-04T18:28:09.223Z,15.50
2019-04-04T18:30:38.331Z,11.30
2019-04-04T18:33:07.504Z,13.00
2019-04-04T18:35:36.996Z,14.33
2019-04-04T18:38:06.847Z,18.13
2019-04-04T18:40:36.823Z,12.50
2019-04-04T18:43:05.967Z,13.60
2019-04-04T18:45:35.278Z,14.70
2019-04-04T18:48:04.586Z,9.73
2019-04-04T18:50:33.780Z,13.10
2019-04-04T18:53:02.932Z,15.90
2019-04-04T18:55:32.076Z,12.97
2019-04-04T18:58:01.190Z,14.83
2019-04-04T19:00:30.334Z,13.20
2019-04-04T19:02:59.563Z,22.13
2019-04-04T19:05:28.691Z,17.80
2019-04-04T19:07:57.808Z,18.80
2019-04-04T19:10:26.941Z,17.23
2019-04-04T19:13:05.265Z,14.67
2019-04-04T19:15:27.277Z,13.50
2019-04-04T19:17:56.474Z,14.90
2019-04-04T19:20:25.735Z,14.60
2019-04-04T19:22:54.920Z,12.03
2019-04-04T19:25:24.421Z,14.80
2019-04-04T19:27:53.635Z,17.43
2019-04-04T19:30:22.953Z,16.27
2019-04-04T19:32:52.500Z,13.10
2019-04-04T19:35:21.609Z,13.50
2019-04-04T19:37:59.902Z,17.23
2019-04-04T19:40:21.888Z,15.30
2019-04-04T19:42:51.013Z,16.00
2019-04-04T19:45:21.403Z,16.70
2019-04-04T19:47:50.808Z,18.00
2019-04-04T19:50:19.977Z,22.87
2019-04-04T19:52:49.077Z,16.93
2019-04-04T19:55:18.188Z,19.00
2019-04-04T19:57:47.300Z,24.83
2019-04-04T20:00:16.682Z,16.33
2019-04-04T20:02:45.840Z,20.60
2019-04-04T20:05:15.160Z,14.80
2019-04-04T20:07:44.315Z,17.30
2019-04-04T20:10:13.498Z,24.43
2019-04-04T20:12:42.632Z,18.17
2019-04-04T20:15:13.633Z,19.33
2019-04-04T20:17:42.808Z,20.30
2019-04-04T20:20:12.277Z,28.10
2019-04-04T20:22:41.477Z,20.60
2019-04-04T20:25:10.668Z,24.40
2019-04-04T20:27:39.807Z,30.07
2019-04-04T20:30:09.604Z,25.10
2019-04-04T20:32:38.729Z,19.70
2019-04-04T20:35:08.037Z,23.00
2019-04-04T20:37:37.167Z,22.83
2019-04-04T20:40:06.448Z,27.67
2019-04-04T20:42:35.579Z,21.23
2019-04-04T20:45:05.171Z,24.13
2019-04-04T20:47:35.671Z,20.60
2019-04-04T20:50:05.000Z,20.50
2019-04-04T20:52:34.147Z,23.67
2019-04-04T20:55:03.260Z,19.97
2019-04-04T20:57:32.404Z,24.07
2019-04-04T21:00:01.539Z,21.77
2019-04-04T21:02:30.820Z,21.00
2019-04-04T21:05:00.001Z,23.90
2019-04-04T21:07:29.152Z,22.40
2019-04-04T21:09:58.329Z,23.33
2019-04-04T21:12:27.456Z,23.00
2019-04-04T21:14:56.586Z,23.43
2019-04-04T21:17:25.760Z,22.57
2019-04-04T21:19:55.970Z,24.80
2019-04-04T21:22:27.814Z,23.83
2019-04-04T21:24:55.905Z,28.13
2019-04-04T21:27:25.014Z,22.93
2019-04-04T21:29:54.136Z,27.57
2019-04-04T21:32:23.268Z,25.03
2019-04-04T21:34:52.403Z,23.40
2019-04-04T21:37:21.551Z,23.60
2019-04-04T21:39:50.653Z,27.23
2019-04-04T21:42:19.757Z,24.13
2019-04-04T21:44:49.173Z,30.20
2019-04-04T21:47:18.663Z,24.23
2019-04-04T21:49:47.813Z,24.43
2019-04-04T21:52:17.015Z,24.17
2019-04-04T21:54:46.243Z,24.10
2019-04-04T21:57:15.646Z,29.13
2019-04-04T21:59:44.773Z,26.07
2019-04-04T22:02:14.112Z,25.70
2019-04-04T22:04:43.264Z,32.27
2019-04-04T22:07:12.413Z,25.13
2019-04-04T22:09:41.560Z,27.20
2019-04-04T22:12:11.732Z,27.63
2019-04-04T22:14:40.864Z,27.93
2019-04-04T22:17:09.979Z,27.33
2019-04-04T22:19:39.105Z,24.60
2019-04-04T22:22:08.220Z,26.27
2019-04-04T22:24:37.354Z,26.43
2019-04-04T22:27:06.445Z,25.77
2019-04-04T22:29:35.571Z,29.80
2019-04-04T22:32:04.675Z,27.80
2019-04-04T22:34:33.800Z,22.30
2019-04-04T22:37:02.917Z,23.77
2019-04-04T22:39:32.049Z,25.80
2019-04-04T22:42:01.215Z,33.03
2019-04-04T22:44:34.906Z,26.53
2019-04-04T22:47:01.433Z,26.07
2019-04-04T22:49:30.544Z,25.07
2019-04-04T22:51:59.641Z,28.40
2019-04-04T22:54:29.112Z,31.20
2019-04-04T22:56:58.272Z,33.43
2019-04-04T22:59:27.384Z,33.60
2019-04-04T23:01:56.579Z,33.67
2019-04-04T23:04:25.727Z,36.13
2019-04-04T23:06:54.826Z,39.40
2019-04-04T23:09:23.945Z,38.90
2019-04-04T23:11:53.068Z,39.53
2019-04-04T23:14:22.218Z,45.00
2019-04-04T23:16:51.310Z,43.23
2019-04-04T23:19:20.433Z,38.53
2019-04-04T23:21:49.556Z,42.17
2019-04-04T23:24:18.689Z,40.70
2019-04-04T23:26:47.796Z,54.57
2019-04-04T23:29:16.925Z,46.50
2019-04-04T23:31:46.030Z,50.60
2019-04-04T23:34:15.152Z,60.30
2019-04-04T23:36:44.299Z,55.70
2019-04-04T23:39:13.409Z,54.57
2019-04-04T23:41:42.576Z,48.80
2019-04-04T23:44:11.695Z,60.13
2019-04-04T23:46:40.808Z,56.97
2019-04-04T23:49:09.917Z,58.40
2019-04-04T23:51:39.041Z,53.20
2019-04-04T23:54:08.143Z,56.87
2019-04-04T23:56:37.296Z,55.50
2019-04-04T23:59:06.668Z,58.60
